Freuchie, United Kingdom
Current Conditions -  °F | °C
As of 8:50 PM on Friday 28 Nov 2014 (Local Time) from EGQL Reporting Station
Drizzle Drizzle  
Wind Chill: 50°   Ceiling: 700
Heat Index: 50°   Visibility: 3mi
Dew Point: 48°   Wind: 9mph
Humidity: 94%   Direction: 120°ESE
Pressure: 29.88"   Gusts: NA
Location:  56.25°N, 3.16°W
Report Text: EGQL 282050Z 12008KT 5000 -DZ FEW005 BKN007 10/09 Q1012 GRN
Loading
Personal Weather Stations






























Interactive Weather Map New forecast layout! Learn more

10-Day Weather Forecast

Advertisements
Track Severe Weather on mobile